Time;durP1;ratioP1;P1;durP2;ratioP2;P2;SDS_P1;SDS_P2;PMS_P1;PMS_P2;Temp;Humidity;BMP_temperature;BMP_pressure;BME280_temperature;BME280_humidity;BME280_pressure;Samples;Min_cycle;Max_cycle;Signal;HPM_P1;HPM_P2
2021/06/28 00:01:51;;;;;;;4.40;3.53;;;;;;;26.51;57.12;100924.11;127159;1096;64157;-83
2021/06/28 00:04:50;;;;;;;5.15;3.30;;;;;;;26.53;56.98;100923.95;127169;1095;64130;-83
2021/06/28 00:08:19;;;;;;;;;;;;;;;;;;;;;
2021/06/28 00:11:26;;;;;;;;;;;;;;;;;;;;;
2021/06/28 00:14:20;;;;;;;6.13;3.70;;;;;;;26.54;56.93;100944.63;127171;1096;64131;-84
2021/06/28 00:17:47;;;;;;;5.00;3.40;;;;;;;26.52;56.88;100939.36;126370;1098;64122;-84
2021/06/28 00:20:40;;;;;;;4.40;3.30;;;;;;;26.51;56.72;100944.88;126546;1100;64168;-84
2021/06/28 00:23:39;;;;;;;4.00;3.37;;;;;;;26.49;56.96;100936.06;127170;1100;64239;-84
2021/06/28 00:27:01;;;;;;;5.00;3.27;;;;;;;26.47;56.80;100930.80;126678;1100;64234;-84
2021/06/28 00:29:51;;;;;;;4.70;3.40;;;;;;;26.45;56.82;100927.37;127126;1097;64268;-84
2021/06/28 00:33:02;;;;;;;;;;;;;;;;;;;;;
2021/06/28 00:36:02;;;;;;;;;;;;;;;;;;;;;
2021/06/28 00:39:01;;;;;;;4.30;3.30;;;;;;;26.47;57.09;100922.68;126349;1100;64163;-84
2021/06/28 00:42:26;;;;;;;4.90;3.47;;;;;;;26.50;57.10;100922.39;126363;1100;64127;-84
2021/06/28 00:45:44;;;;;;;4.80;3.17;;;;;;;26.53;57.03;100932.08;125855;1103;64166;-84
2021/06/28 00:49:01;;;;;;;;;;;;;;;;;;;;;
2021/06/28 00:52:13;;;;;;;5.25;3.30;;;;;;;26.54;56.92;100925.67;125788;1106;64356;-84
2021/06/28 00:55:03;;;;;;;4.45;3.40;;;;;;;26.52;56.91;100917.70;125854;1103;64182;-84
2021/06/28 00:58:06;;;;;;;;;;;;;;;;;;;;;
2021/06/28 01:00:49;;;;;;;;;;;;;;;;;;;;;
2021/06/28 01:04:28;;;;;;;5.07;3.67;;;;;;;26.47;56.80;100928.09;125873;1103;64205;-84
2021/06/28 01:07:18;;;;;;;4.87;3.60;;;;;;;26.46;56.83;100920.97;126082;1103;64144;-84
2021/06/28 01:10:37;;;;;;;5.97;3.47;;;;;;;26.45;56.87;100926.52;126311;1103;64169;-84
2021/06/28 01:13:43;;;;;;;;;;;;;;;;;;;;;
2021/06/28 01:16:56;;;;;;;4.20;3.40;;;;;;;26.44;56.97;100922.94;126903;1100;65977;-85
2021/06/28 01:20:09;;;;;;;4.77;3.30;;;;;;;26.46;57.09;100923.67;126420;1100;64180;-84
2021/06/28 01:23:16;;;;;;;4.60;3.57;;;;;;;26.48;56.98;100912.70;126815;1097;64173;-84
2021/06/28 01:26:18;;;;;;;;;;;;;;;;;;;;;
2021/06/28 01:29:35;;;;;;;4.20;3.30;;;;;;;26.51;56.81;100918.69;127173;1095;64171;-84
2021/06/28 01:32:22;;;;;;;;;;;;;;;;;;;;;
2021/06/28 01:35:54;;;;;;;4.50;3.23;;;;;;;26.51;56.87;100924.11;127111;1100;64428;-84
2021/06/28 01:38:53;;;;;;;4.20;3.27;;;;;;;26.50;56.81;100918.84;126297;1101;64517;-84
2021/06/28 01:41:40;;;;;;;4.67;3.40;;;;;;;26.50;56.68;100935.08;125886;1103;64163;-84
2021/06/28 01:44:23;;;;;;;4.80;3.60;;;;;;;26.47;56.74;100936.22;125846;1103;64174;-84
2021/06/28 01:47:56;;;;;;;4.80;3.60;;;;;;;26.45;56.89;100937.35;125860;1103;64258;-84
2021/06/28 01:51:04;;;;;;;4.30;3.70;;;;;;;26.43;56.82;100951.88;125868;1103;64362;-84
2021/06/28 01:54:02;;;;;;;4.00;3.23;;;;;;;26.41;56.72;100951.15;125865;1103;64246;-84
2021/06/28 01:57:21;;;;;;;4.30;3.20;;;;;;;26.39;56.87;100944.20;125989;1103;64170;-85
2021/06/28 02:00:08;;;;;;;4.00;3.20;;;;;;;26.41;56.84;100953.02;126043;1103;64247;-84
2021/06/28 02:03:17;;;;;;;4.47;3.37;;;;;;;26.42;57.01;100950.16;126318;1103;64343;-83
2021/06/28 02:06:49;;;;;;;4.77;3.27;;;;;;;26.46;56.94;100953.45;126343;1103;63976;-84
2021/06/28 02:10:04;;;;;;;;;;;;;;;;;;;;;
2021/06/28 02:12:45;;;;;;;5.90;3.43;;;;;;;26.49;56.96;100957.72;126012;1103;64193;-84
2021/06/28 02:15:26;;;;;;;4.73;3.47;;;;;;;26.49;56.90;100949.61;126576;1097;64277;-84
2021/06/28 02:19:12;;;;;;;4.23;3.10;;;;;;;26.49;56.79;100965.84;127195;1094;64173;-84
2021/06/28 02:21:57;;;;;;;;;;;;;;;;;;;;;
2021/06/28 02:25:09;;;;;;;5.07;3.53;;;;;;;26.46;56.91;100966.98;127293;1093;64176;-84
2021/06/28 02:28:05;;;;;;;5.23;3.63;;;;;;;26.45;56.80;100967.97;127292;1093;64256;-84
2021/06/28 02:31:08;;;;;;;5.07;3.43;;;;;;;26.42;56.76;100963.69;127302;1093;64221;-85
2021/06/28 02:34:33;;;;;;;5.47;3.57;;;;;;;26.40;56.76;100960.29;127268;1093;64158;-87
2021/06/28 02:37:20;;;;;;;4.60;3.53;;;;;;;26.40;56.88;100962.12;127495;1090;64311;-84
2021/06/28 02:40:42;;;;;;;4.97;3.60;;;;;;;26.41;56.93;100958.42;127972;1089;64853;-84
2021/06/28 02:43:53;;;;;;;4.70;3.43;;;;;;;26.43;56.95;100969.98;127916;1089;64152;-84
2021/06/28 02:46:49;;;;;;;;;;;;;;;;;;;;;
2021/06/28 02:50:20;;;;;;;5.83;3.53;;;;;;;26.46;56.98;100961.56;127762;1090;64173;-84
2021/06/28 02:53:43;;;;;;;4.17;3.50;;;;;;;26.47;56.75;100968.70;127942;1089;64175;-84
2021/06/28 02:56:48;;;;;;;4.47;3.83;;;;;;;26.48;56.94;100969.54;127388;1093;64153;-84
2021/06/28 02:59:59;;;;;;;4.17;3.50;;;;;;;26.47;56.88;100974.11;127678;1090;64223;-84
2021/06/28 03:02:47;;;;;;;4.97;3.70;;;;;;;26.47;56.85;100979.53;127666;1090;64265;-85
2021/06/28 03:06:03;;;;;;;5.80;4.35;;;;;;;26.45;56.95;100981.50;127718;1088;64147;-83
2021/06/28 03:09:12;;;;;;;5.23;3.60;;;;;;;26.42;56.73;100971.81;127684;1093;64951;-84
2021/06/28 03:12:12;;;;;;;;;;;;;;;;;;;;;
2021/06/28 03:15:22;;;;;;;5.73;3.90;;;;;;;26.39;56.74;100974.81;127297;1092;64115;-84
2021/06/28 03:18:36;;;;;;;;;;;;;;;;;;;;;
2021/06/28 03:21:57;;;;;;;;;;;;;;;;;;;;;
2021/06/28 03:24:56;;;;;;;6.57;3.57;;;;;;;26.43;56.93;100978.94;127239;1096;64187;-84
2021/06/28 03:28:02;;;;;;;5.28;3.40;;;;;;;26.46;56.94;100985.92;127267;1096;64181;-84
2021/06/28 03:30:49;;;;;;;5.07;3.77;;;;;;;26.48;56.92;100981.21;126504;1100;65402;-84
2021/06/28 03:33:41;;;;;;;4.70;3.90;;;;;;;26.49;56.80;100982.93;127139;1100;64256;-84
2021/06/28 03:36:31;;;;;;;5.23;3.80;;;;;;;26.50;56.93;100978.39;126303;1099;64128;-84
2021/06/28 03:39:31;;;;;;;;;;;;;;;;;;;;;
2021/06/28 03:42:37;;;;;;;4.60;3.40;;;;;;;26.51;56.79;100996.31;126290;1099;64261;-84
2021/06/28 03:45:35;;;;;;;5.00;3.90;;;;;;;26.49;56.73;100995.63;126369;1100;64153;-84
2021/06/28 03:48:26;;;;;;;4.85;3.83;;;;;;;26.46;56.69;100991.34;125848;1101;64199;-84
2021/06/28 03:51:41;;;;;;;5.20;3.90;;;;;;;26.44;56.64;100990.61;126270;1103;64204;-83
2021/06/28 03:55:03;;;;;;;;;;;;;;;;;;;;;
2021/06/28 03:58:01;;;;;;;8.45;4.50;;;;;;;26.41;56.76;101013.40;126386;1103;64166;-84
2021/06/28 04:00:57;;;;;;;;;;;;;;;;;;;;;
2021/06/28 04:04:21;;;;;;;;;;;;;;;;;;;;;
2021/06/28 04:07:45;;;;;;;7.30;5.10;;;;;;;26.37;56.69;101014.67;126524;1100;64182;-84
2021/06/28 04:10:33;;;;;;;6.67;4.50;;;;;;;26.37;56.84;101017.38;126286;1103;64166;-84
2021/06/28 04:13:48;;;;;;;7.33;4.73;;;;;;;26.40;56.71;101025.25;126611;1100;64185;-83
2021/06/28 04:16:45;;;;;;;;;;;;;;;;;;;;;
2021/06/28 04:19:43;;;;;;;6.90;4.83;;;;;;;26.47;56.71;101022.84;126300;1103;64408;-84
2021/06/28 04:22:30;;;;;;;6.75;4.85;;;;;;;26.48;56.67;101021.81;126263;1103;64313;-84
2021/06/28 04:25:09;;;;;;;7.77;5.03;;;;;;;26.50;56.43;101022.55;126332;1098;64185;-84
2021/06/28 04:28:07;;;;;;;;;;;;;;;;;;;;;
2021/06/28 04:31:12;;;;;;;;;;;;;;;;;;;;;
2021/06/28 04:34:31;;;;;;;7.87;5.30;;;;;;;26.50;56.53;101014.42;126334;1098;63978;-84
2021/06/28 04:37:17;;;;;;;8.85;5.70;;;;;;;26.48;56.12;101007.44;126421;1100;64237;-84
2021/06/28 04:39:57;;;;;;;8.07;5.67;;;;;;;26.47;55.96;101008.42;126045;1103;64998;-83
2021/06/28 04:42:39;;;;;;;9.23;6.73;;;;;;;26.46;56.17;101009.45;125955;1103;64294;-84
2021/06/28 04:46:01;;;;;;;;;;;;;;;;;;;;;
2021/06/28 04:49:29;;;;;;;8.00;6.37;;;;;;;26.42;55.93;101015.12;126306;1102;64253;-84
2021/06/28 04:52:36;;;;;;;8.37;7.03;;;;;;;26.42;55.79;101020.53;126348;1103;64196;-84
2021/06/28 04:55:48;;;;;;;;;;;;;;;;;;;;;
2021/06/28 04:58:35;;;;;;;9.13;6.63;;;;;;;26.40;55.75;101017.13;126320;1100;64244;-84
2021/06/28 05:01:22;;;;;;;8.67;6.73;;;;;;;26.40;55.85;101027.08;126333;1100;64616;-84
2021/06/28 05:04:27;;;;;;;10.88;7.63;;;;;;;26.39;55.75;101025.39;126363;1099;64342;-84
2021/06/28 05:07:55;;;;;;;8.70;7.37;;;;;;;26.39;55.67;101025.39;126382;1099;64160;-85
2021/06/28 05:11:10;;;;;;;11.85;7.63;;;;;;;26.38;55.64;101031.79;126602;1100;64179;-85
2021/06/28 05:14:29;;;;;;;9.07;7.73;;;;;;;26.38;55.69;101037.20;126310;1099;64235;-84
2021/06/28 05:17:28;;;;;;;10.43;7.65;;;;;;;26.38;55.71;101038.05;126322;1103;64142;-85
2021/06/28 05:20:25;;;;;;;11.80;7.50;;;;;;;26.38;55.43;101031.79;126346;1103;64417;-85
2021/06/28 05:23:55;;;;;;;11.03;7.90;;;;;;;26.38;55.23;101034.50;126819;1100;64006;-83
2021/06/28 05:26:35;;;;;;;9.50;7.87;;;;;;;26.38;55.48;101031.79;127146;1096;64135;-84
2021/06/28 05:29:56;;;;;;;;;;;;;;;;;;;;;
2021/06/28 05:32:51;;;;;;;9.53;8.53;;;;;;;26.38;55.13;101031.79;127039;1098;64676;-83
2021/06/28 05:36:04;;;;;;;10.57;8.70;;;;;;;26.39;55.28;101028.09;127159;1100;64302;-83
2021/06/28 05:39:05;;;;;;;11.77;8.60;;;;;;;26.39;55.22;101034.36;126171;1102;64376;-85
2021/06/28 05:42:47;;;;;;;;;;;;;;;;;;;;;
2021/06/28 05:45:47;;;;;;;9.90;8.30;;;;;;;26.41;55.10;101042.33;125848;1105;64256;-83
2021/06/28 05:49:03;;;;;;;11.27;8.47;;;;;;;26.41;54.97;101040.47;125890;1106;64250;-84
2021/06/28 05:52:03;;;;;;;;;;;;;;;;;;;;;
2021/06/28 05:55:16;;;;;;;10.50;8.07;;;;;;;26.42;54.94;101044.05;126203;1103;64374;-84
2021/06/28 05:58:28;;;;;;;10.77;8.10;;;;;;;26.43;54.88;101048.48;126292;1102;64375;-83
2021/06/28 06:01:47;;;;;;;;;;;;;;;;;;;;;
2021/06/28 06:04:33;;;;;;;9.15;7.73;;;;;;;26.45;54.71;101051.03;125882;1105;64179;-84
2021/06/28 06:07:31;;;;;;;;;;;;;;;;;;;;;
2021/06/28 06:10:30;;;;;;;8.77;7.47;;;;;;;26.45;54.42;101062.70;126140;1103;64123;-84
2021/06/28 06:13:28;;;;;;;8.63;7.43;;;;;;;26.46;54.57;101069.00;126287;1103;64117;-84
2021/06/28 06:16:30;;;;;;;;;;;;;;;;;;;;;
2021/06/28 06:19:52;;;;;;;;;;;;;;;;;;;;;
2021/06/28 06:23:19;;;;;;;9.10;7.50;;;;;;;26.47;54.18;101070.69;127197;1096;64157;-85
2021/06/28 06:26:29;;;;;;;10.33;7.53;;;;;;;26.47;54.11;101070.69;127295;1093;64259;-84
2021/06/28 06:29:19;;;;;;;;;;;;;;;;;;;;;
2021/06/28 06:32:28;;;;;;;8.00;7.20;;;;;;;26.47;53.77;101076.98;127792;1090;64115;-84
2021/06/28 06:35:36;;;;;;;;;;;;;;;;;;;;;
2021/06/28 06:38:30;;;;;;;9.10;7.37;;;;;;;26.48;53.85;101064.28;128065;1087;64502;-85
2021/06/28 06:41:57;;;;;;;9.47;7.27;;;;;;;26.49;53.77;101074.13;128347;1087;63964;-84
2021/06/28 06:44:45;;;;;;;8.00;6.97;;;;;;;26.50;53.72;101078.55;127885;1090;64240;-84
2021/06/28 06:48:12;;;;;;;9.10;7.60;;;;;;;26.50;53.91;101079.39;127893;1090;64076;-84
2021/06/28 06:50:43;;;;;;;9.10;7.40;;;;;;;26.50;53.71;101076.69;127904;1089;64182;-84
2021/06/28 06:53:34;;;;;;;;;;;;;;;;;;;;;
2021/06/28 06:56:42;;;;;;;9.40;7.20;;;;;;;26.50;53.68;101082.10;127864;1090;64233;-85
2021/06/28 06:59:29;;;;;;;9.30;8.10;;;;;;;26.51;53.57;101085.66;127883;1090;64240;-84
2021/06/28 07:02:35;;;;;;;8.87;7.33;;;;;;;26.51;53.54;101075.70;127876;1090;64147;-84
2021/06/28 07:05:12;;;;;;;8.33;7.20;;;;;;;26.53;53.66;101080.97;127870;1088;64278;-85
2021/06/28 07:08:36;;;;;;;;;;;;;;;;;;;;;
2021/06/28 07:11:28;;;;;;;8.00;6.70;;;;;;;26.52;53.48;101080.13;127639;1090;66016;-83
2021/06/28 07:14:09;;;;;;;8.80;7.27;;;;;;;26.53;53.58;101075.55;127481;1090;64147;-86
2021/06/28 07:16:45;;;;;;;8.40;6.93;;;;;;;26.53;53.64;101076.40;127586;1089;64256;-83
2021/06/28 07:19:49;;;;;;;9.70;7.50;;;;;;;26.53;53.43;101087.23;127523;1090;64361;-84
2021/06/28 07:22:39;;;;;;;9.47;7.53;;;;;;;26.53;53.39;101095.35;127566;1089;64108;-83
2021/06/28 07:25:22;;;;;;;9.73;7.17;;;;;;;26.55;53.48;101100.63;127573;1090;64243;-84
2021/06/28 07:28:20;;;;;;;9.30;7.80;;;;;;;26.54;53.60;101099.78;127618;1090;64117;-84
2021/06/28 07:31:18;;;;;;;9.07;7.60;;;;;;;26.55;53.42;101101.50;127611;1090;64153;-84
2021/06/28 07:34:16;;;;;;;9.77;8.03;;;;;;;26.55;53.55;101098.79;127611;1090;64249;-83
2021/06/28 07:36:42;;;;;;;8.68;6.93;;;;;;;26.56;53.46;101102.34;127616;1090;64255;-84
2021/06/28 07:39:11;;;;;;;9.93;8.43;;;;;;;26.56;53.32;101116.75;127673;1090;64151;-84
2021/06/28 07:41:58;;;;;;;9.60;7.60;;;;;;;26.58;53.57;101111.20;127610;1090;64282;-84
2021/06/28 07:44:33;;;;;;;8.80;7.23;;;;;;;26.58;53.25;101114.75;127645;1090;64259;-83
2021/06/28 07:47:34;;;;;;;;;;;;;;;;;;;;;
2021/06/28 07:50:19;;;;;;;9.37;7.40;;;;;;;26.58;53.09;101112.04;127824;1090;64076;-82
2021/06/28 07:52:57;;;;;;;8.97;7.40;;;;;;;26.58;53.05;101116.61;127807;1090;64265;-83
2021/06/28 07:55:29;;;;;;;8.53;6.75;;;;;;;26.57;52.94;101123.02;127857;1089;64181;-83
2021/06/28 07:58:16;;;;;;;9.58;7.28;;;;;;;26.57;53.08;101125.72;127780;1089;64164;-84
2021/06/28 08:00:45;;;;;;;8.17;7.37;;;;;;;26.56;53.18;101119.46;127784;1089;64185;-83
2021/06/28 08:03:44;;;;;;;8.77;7.47;;;;;;;26.56;53.17;101121.30;127745;1089;64403;-83
2021/06/28 08:06:21;;;;;;;9.73;7.37;;;;;;;26.56;53.03;101129.41;127823;1088;64025;-84
2021/06/28 08:09:07;;;;;;;9.13;7.70;;;;;;;26.56;53.17;101124.00;127826;1090;64195;-84
2021/06/28 08:11:43;;;;;;;9.53;7.50;;;;;;;26.56;53.12;101132.13;127889;1089;64233;-85
2021/06/28 08:14:15;;;;;;;8.30;7.30;;;;;;;26.55;52.97;101133.11;127855;1088;63920;-84
2021/06/28 08:17:15;;;;;;;8.23;7.13;;;;;;;26.54;52.93;101132.27;127912;1089;64143;-82
2021/06/28 08:19:44;;;;;;;8.43;6.70;;;;;;;26.54;53.02;101136.84;127786;1088;64329;-82
2021/06/28 08:22:11;;;;;;;7.77;6.83;;;;;;;26.53;52.94;101122.42;127765;1090;64141;-84
2021/06/28 08:25:08;;;;;;;8.90;7.07;;;;;;;26.53;53.12;101121.58;127812;1090;64477;-83
2021/06/28 08:27:35;;;;;;;8.83;6.53;;;;;;;26.52;53.02;101123.44;127614;1090;64163;-82
2021/06/28 08:30:27;;;;;;;7.35;6.45;;;;;;;26.53;53.03;101124.28;127638;1090;64120;-81
2021/06/28 08:33:02;;;;;;;7.40;6.63;;;;;;;26.52;53.15;101123.44;127258;1093;62852;-81
2021/06/28 08:35:41;;;;;;;9.27;6.67;;;;;;;26.51;53.16;101119.02;127214;1093;64467;-82
2021/06/28 08:38:18;;;;;;;8.38;7.33;;;;;;;26.52;53.24;101120.73;127199;1093;62897;-83
2021/06/28 08:40:46;;;;;;;7.73;6.40;;;;;;;26.53;53.13;101124.28;127223;1093;64334;-82
2021/06/28 08:43:15;;;;;;;9.57;6.70;;;;;;;26.53;53.20;101121.58;127164;1093;64159;-83
2021/06/28 08:46:07;;;;;;;8.27;6.90;;;;;;;26.53;53.14;101113.45;127276;1093;64390;-84
2021/06/28 08:49:28;;;;;;;;;;;;;;;;;;;;;
2021/06/28 08:52:07;;;;;;;8.00;6.87;;;;;;;26.52;53.30;101104.49;127128;1096;64167;-84
2021/06/28 08:55:07;;;;;;;7.50;6.70;;;;;;;26.51;53.26;101096.48;127152;1095;64156;-84
2021/06/28 08:58:03;;;;;;;9.30;7.10;;;;;;;26.51;53.23;101096.48;126482;1098;61779;-83
2021/06/28 09:01:06;;;;;;;7.70;6.90;;;;;;;26.49;53.40;101093.92;126344;1103;64167;-83
2021/06/28 09:04:11;;;;;;;;;;;;;;;;;;;;;
2021/06/28 09:07:21;;;;;;;8.10;7.03;;;;;;;26.50;53.25;101092.09;126253;1100;64270;-84
2021/06/28 09:10:50;;;;;;;8.00;6.55;;;;;;;26.49;53.43;101085.80;126475;1096;64506;-83
2021/06/28 09:13:27;;;;;;;8.80;6.97;;;;;;;26.49;53.55;101084.95;126896;1096;65761;-83
2021/06/28 09:16:19;;;;;;;7.65;6.45;;;;;;;26.50;53.32;101084.81;126904;1096;64262;-82
2021/06/28 09:19:12;;;;;;;;;;;;;;;;;;;;;
2021/06/28 09:22:15;;;;;;;;;;;;;;;;;;;;;
2021/06/28 09:25:25;;;;;;;9.67;7.77;;;;;;;26.50;53.61;101082.10;127157;1096;64003;-84
2021/06/28 09:28:32;;;;;;;9.27;7.83;;;;;;;26.50;53.57;101076.69;127021;1100;64159;-83
2021/06/28 09:32:17;;;;;;;10.77;9.50;;;;;;;26.50;53.56;101081.26;127123;1100;64163;-85
2021/06/28 09:35:14;;;;;;;10.83;9.73;;;;;;;26.49;53.62;101074.97;126474;1098;64254;-84
2021/06/28 09:38:51;;;;;;;;;;;;;;;;;;;;;
2021/06/28 09:41:35;;;;;;;12.00;9.67;;;;;;;26.48;53.67;101073.25;127666;1092;64186;-84
2021/06/28 09:44:31;;;;;;;;;;;;;;;;;;;;;
2021/06/28 09:47:59;;;;;;;;;;;;;;;;;;;;;
2021/06/28 09:50:55;;;;;;;11.07;9.40;;;;;;;26.48;53.50;101073.25;127203;1095;64278;-83
2021/06/28 09:53:42;;;;;;;11.57;10.37;;;;;;;26.50;53.62;101073.14;127104;1097;64233;-82
2021/06/28 09:57:49;;;;;;;10.77;9.63;;;;;;;26.49;53.57;101069.55;127146;1095;64192;-84
2021/06/28 10:00:49;;;;;;;12.40;10.60;;;;;;;26.49;53.62;101080.38;126924;1100;64156;-82
2021/06/28 10:03:51;;;;;;;11.47;9.80;;;;;;;26.50;53.73;101086.67;126196;1101;64160;-82
2021/06/28 10:09:09;;;;;;;11.47;10.27;;;;;;;26.51;53.42;101069.41;126670;1097;64147;-82
2021/06/28 10:12:07;;;;;;;;;;;;;;;;;;;;;
2021/06/28 10:14:38;;;;;;;9.87;8.87;;;;;;;26.52;53.55;101076.55;126969;1097;64127;-82
2021/06/28 10:17:38;;;;;;;10.47;9.30;;;;;;;26.52;53.60;101071.13;127149;1097;64122;-83
2021/06/28 10:20:35;;;;;;;11.23;10.03;;;;;;;26.52;53.58;101072.00;127094;1097;64294;-82
2021/06/28 10:23:29;;;;;;;10.67;7.47;;;;;;;26.52;53.60;101068.42;127112;1097;64239;-82
2021/06/28 10:26:04;;;;;;;9.10;7.60;;;;;;;26.53;53.90;101060.16;126981;1096;64332;-82
2021/06/28 10:28:54;;;;;;;11.40;9.43;;;;;;;26.55;53.97;101058.18;127011;1096;64154;-82
2021/06/28 10:31:26;;;;;;;12.70;9.77;;;;;;;26.59;54.15;101056.06;127067;1093;64160;-82
2021/06/28 10:34:13;;;;;;;13.93;9.53;;;;;;;26.63;54.29;101057.48;127411;1090;64067;-83
2021/06/28 10:37:00;;;;;;;11.50;9.87;;;;;;;26.67;54.19;101050.80;127611;1089;64258;-82
2021/06/28 10:39:37;;;;;;;11.60;10.10;;;;;;;26.70;54.18;101046.95;127852;1090;64323;-84
2021/06/28 10:42:15;;;;;;;12.43;10.00;;;;;;;26.72;54.17;101036.84;127863;1089;64131;-83
2021/06/28 10:45:20;;;;;;;13.87;10.70;;;;;;;26.72;54.13;101040.43;127773;1089;64105;-84
2021/06/28 10:48:34;;;;;;;12.15;10.15;;;;;;;26.73;53.98;101046.69;127934;1090;63955;-83
2021/06/28 10:51:52;;;;;;;;;;;;;;;;;;;;;
2021/06/28 10:55:04;;;;;;;11.47;10.27;;;;;;;26.70;53.98;101033.41;127773;1090;64399;-83
2021/06/28 10:57:59;;;;;;;12.03;10.23;;;;;;;26.67;53.70;101030.97;127776;1090;64251;-83
2021/06/28 11:01:20;;;;;;;10.77;9.57;;;;;;;26.66;53.83;101032.83;127791;1090;64173;-83
2021/06/28 11:04:09;;;;;;;11.10;9.87;;;;;;;26.65;53.81;101027.56;127615;1090;64166;-83
2021/06/28 11:07:04;;;;;;;12.33;10.70;;;;;;;26.64;53.89;101026.69;127710;1090;64147;-84
2021/06/28 11:10:12;;;;;;;11.77;10.40;;;;;;;26.64;53.69;101031.25;127772;1089;64169;-83
2021/06/28 11:13:03;;;;;;;11.53;10.33;;;;;;;26.61;53.78;101024.27;127754;1088;64073;-84
2021/06/28 11:15:51;;;;;;;11.90;10.67;;;;;;;26.62;53.77;101025.11;127574;1090;64170;-83
2021/06/28 11:18:41;;;;;;;12.27;10.97;;;;;;;26.59;53.81;101019.00;127625;1090;65834;-84
2021/06/28 11:21:30;;;;;;;12.43;10.90;;;;;;;26.59;53.61;101019.00;127661;1090;64376;-84
2021/06/28 11:24:00;;;;;;;11.83;10.57;;;;;;;26.58;53.72;101028.11;127809;1089;64174;-84
2021/06/28 11:27:02;;;;;;;12.03;10.73;;;;;;;26.58;53.54;101008.31;127712;1090;63962;-84
2021/06/28 11:30:20;;;;;;;;;;;;;;;;;;;;;
2021/06/28 11:33:43;;;;;;;12.40;11.10;;;;;;;26.56;53.70;101007.59;127620;1093;64346;-84
2021/06/28 11:36:44;;;;;;;12.03;10.70;;;;;;;26.56;53.79;101015.70;127512;1092;64223;-84
2021/06/28 11:39:37;;;;;;;12.50;11.20;;;;;;;26.56;53.98;101008.46;127475;1093;64320;-83
2021/06/28 11:42:40;;;;;;;12.17;10.97;;;;;;;26.56;53.68;100999.46;127184;1092;64351;-83
2021/06/28 11:45:55;;;;;;;11.50;10.13;;;;;;;26.55;53.68;100995.91;127246;1093;64397;-84
2021/06/28 11:49:08;;;;;;;11.63;10.43;;;;;;;26.56;53.79;100994.05;127583;1091;64498;-85
2021/06/28 11:52:23;;;;;;;13.00;11.23;;;;;;;26.56;53.72;100988.63;127376;1093;63990;-85
2021/06/28 11:55:14;;;;;;;12.60;10.83;;;;;;;26.56;53.83;100994.05;127141;1096;64205;-84
2021/06/28 11:58:25;;;;;;;;;;;;;;;;;;;;;
2021/06/28 12:01:35;;;;;;;;;;;;;;;;;;;;;
2021/06/28 12:04:04;;;;;;;12.00;10.23;;;;;;;26.54;53.80;100980.66;126611;1096;64171;-84
2021/06/28 12:06:57;;;;;;;12.20;10.67;;;;;;;26.55;53.73;100981.50;127164;1096;64237;-84
2021/06/28 12:09:48;;;;;;;;;;;;;;;;;;;;;
2021/06/28 12:12:22;;;;;;;10.80;9.77;;;;;;;26.55;53.89;100978.80;127275;1096;64115;-83
2021/06/28 12:15:03;;;;;;;12.67;11.00;;;;;;;26.55;53.74;100979.67;127275;1096;63989;-83
2021/06/28 12:17:33;;;;;;;12.00;10.73;;;;;;;26.56;53.68;100972.39;127249;1096;64207;-83
2021/06/28 12:20:06;;;;;;;12.93;10.80;;;;;;;26.56;54.09;100969.69;127272;1096;64482;-84
2021/06/28 12:23:01;;;;;;;11.23;9.90;;;;;;;26.56;53.65;100972.39;127284;1096;64305;-84
2021/06/28 12:25:41;;;;;;;11.77;10.57;;;;;;;26.57;54.03;100974.95;127290;1096;64180;-84
2021/06/28 12:28:33;;;;;;;11.50;10.40;;;;;;;26.56;53.65;100954.31;127356;1095;64169;-84
2021/06/28 12:31:00;;;;;;;11.65;10.35;;;;;;;26.57;53.62;100958.70;127232;1093;64160;-84
2021/06/28 12:33:57;;;;;;;11.47;10.27;;;;;;;26.57;53.80;100958.70;127548;1089;64104;-83
2021/06/28 12:36:50;;;;;;;12.13;10.70;;;;;;;26.58;53.78;100955.02;127538;1090;64170;-83
2021/06/28 12:39:53;;;;;;;;;;;;;;;;;;;;;
2021/06/28 12:43:11;;;;;;;11.67;10.00;;;;;;;26.60;53.73;100955.73;127839;1090;64125;-83
2021/06/28 12:45:51;;;;;;;11.10;9.87;;;;;;;26.62;53.75;100961.00;127767;1090;64144;-84
2021/06/28 12:48:55;;;;;;;11.80;10.47;;;;;;;26.63;53.71;100956.44;127772;1090;64147;-84
2021/06/28 12:52:17;;;;;;;11.60;9.63;;;;;;;26.63;53.79;100951.02;127608;1090;64150;-84
2021/06/28 12:54:59;;;;;;;11.10;9.73;;;;;;;26.64;53.81;100950.03;127802;1090;64134;-84
2021/06/28 12:57:41;;;;;;;;;;;;;;;;;;;;;
2021/06/28 13:00:46;;;;;;;10.90;9.80;;;;;;;26.65;53.86;100947.17;127715;1090;64109;-82
2021/06/28 13:03:38;;;;;;;11.90;9.53;;;;;;;26.66;53.74;100951.59;127590;1093;64195;-83
2021/06/28 13:06:46;;;;;;;10.57;9.47;;;;;;;26.67;53.83;100950.61;127642;1092;64240;-84
2021/06/28 13:09:56;;;;;;;10.18;8.95;;;;;;;26.67;53.73;100942.48;127297;1093;64223;-84
2021/06/28 13:12:50;;;;;;;9.97;8.97;;;;;;;26.68;53.71;100946.03;127255;1096;64124;-83
2021/06/28 13:15:51;;;;;;;10.37;9.27;;;;;;;26.69;53.73;100939.63;127265;1096;64288;-84
2021/06/28 13:18:46;;;;;;;;;;;;;;;;;;;;;
2021/06/28 13:22:04;;;;;;;;;;;;;;;;;;;;;
2021/06/28 13:25:05;;;;;;;9.60;8.70;;;;;;;26.69;53.71;100935.05;127161;1095;64177;-83
2021/06/28 13:28:19;;;;;;;9.83;8.83;;;;;;;26.69;53.78;100932.34;127155;1100;64173;-84
2021/06/28 13:31:19;;;;;;;;;;;;;;;;;;;;;
2021/06/28 13:34:45;;;;;;;9.37;8.47;;;;;;;26.72;53.86;100928.53;126962;1099;64654;-84
2021/06/28 13:37:47;;;;;;;9.85;8.90;;;;;;;26.73;53.85;100922.13;126365;1099;64125;-81
2021/06/28 13:40:37;;;;;;;;;;;;;;;;;;;;;
2021/06/28 13:43:17;;;;;;;10.17;9.17;;;;;;;26.76;53.69;100921.83;126856;1096;64642;-82
2021/06/28 13:46:08;;;;;;;;;;;;;;;;;;;;;
2021/06/28 13:49:26;;;;;;;9.83;8.83;;;;;;;26.79;53.89;100912.56;127306;1093;64147;-84
2021/06/28 13:52:21;;;;;;;9.53;8.53;;;;;;;26.79;53.75;100920.68;127253;1093;64156;-84
2021/06/28 13:55:16;;;;;;;10.07;8.10;;;;;;;26.80;53.96;100911.56;127302;1093;64143;-84
2021/06/28 13:58:27;;;;;;;9.57;8.57;;;;;;;26.81;53.86;100906.00;127279;1096;64233;-84
2021/06/28 14:01:15;;;;;;;9.53;8.53;;;;;;;26.82;53.82;100914.97;127360;1093;64624;-84
2021/06/28 14:04:01;;;;;;;10.17;9.17;;;;;;;26.82;53.86;100909.55;127283;1096;64185;-84
2021/06/28 14:06:31;;;;;;;9.70;8.60;;;;;;;26.84;53.81;100908.41;127289;1096;65036;-84
2021/06/28 14:09:24;;;;;;;9.55;8.60;;;;;;;26.84;53.66;100908.41;127315;1093;64192;-84
2021/06/28 14:12:11;;;;;;;9.70;8.33;;;;;;;26.85;53.79;100917.41;127277;1093;64181;-84
2021/06/28 14:15:31;;;;;;;10.10;8.33;;;;;;;26.86;53.84;100914.55;127274;1093;64157;-85
2021/06/28 14:18:24;;;;;;;9.50;8.60;;;;;;;26.85;53.73;100910.13;127254;1091;64157;-84
2021/06/28 14:21:31;;;;;;;9.30;8.40;;;;;;;26.85;53.55;100917.41;127309;1093;64169;-85
2021/06/28 14:24:18;;;;;;;9.15;8.25;;;;;;;26.85;53.71;100911.98;127281;1096;65268;-84
2021/06/28 14:26:57;;;;;;;8.90;8.00;;;;;;;26.85;53.70;100915.55;127208;1095;64230;-84
2021/06/28 14:30:04;;;;;;;8.97;8.07;;;;;;;26.85;53.73;100915.55;127050;1096;64231;-83
2021/06/28 14:32:30;;;;;;;9.67;8.67;;;;;;;26.86;53.80;100914.55;127109;1096;64298;-81
2021/06/28 14:34:58;;;;;;;9.37;8.30;;;;;;;26.86;54.04;100905.58;126923;1096;64242;-82
2021/06/28 14:37:29;;;;;;;9.10;8.10;;;;;;;26.85;53.79;100906.58;126956;1096;64144;-83
2021/06/28 14:40:00;;;;;;;9.23;8.33;;;;;;;26.86;53.90;100913.70;126995;1096;64064;-83
2021/06/28 14:42:29;;;;;;;9.33;8.33;;;;;;;26.86;53.76;100905.58;127363;1095;61938;-82
2021/06/28 14:45:01;;;;;;;9.43;8.43;;;;;;;26.85;53.86;100907.41;127208;1097;64128;-83
2021/06/28 14:47:41;;;;;;;9.00;8.20;;;;;;;26.86;53.80;100919.13;127285;1097;64230;-84
2021/06/28 14:50:16;;;;;;;8.78;7.88;;;;;;;26.84;53.72;100902.99;127284;1096;64166;-84
2021/06/28 14:52:56;;;;;;;9.10;8.20;;;;;;;26.82;53.81;100907.72;127314;1096;64172;-83
2021/06/28 14:56:05;;;;;;;9.20;8.10;;;;;;;26.83;53.66;100913.97;127525;1093;62202;-84
2021/06/28 14:59:15;;;;;;;9.43;8.40;;;;;;;26.81;53.84;100911.42;127662;1092;64411;-84
2021/06/28 15:01:42;;;;;;;9.07;8.17;;;;;;;26.80;53.82;100917.83;127148;1096;64153;-84
2021/06/28 15:04:30;;;;;;;9.03;8.00;;;;;;;26.80;53.84;100920.53;127133;1096;64138;-84
2021/06/28 15:06:57;;;;;;;8.97;8.07;;;;;;;26.80;53.86;100925.11;127124;1096;64126;-83
2021/06/28 15:09:23;;;;;;;9.17;8.20;;;;;;;26.80;53.87;100920.53;128459;1096;62688;-82